Terminal Aerodrome Forecast
Issued by NWS Bismarck, ND

Home | Current Version | Previous Version | Graphics & Text | Print | Product List | Glossary On
Versions: 1 2 3 4 5 6 7 8 9 10 11 12 13 14 15 16 17 18
000
FTUS43 KBIS 231000 AAA
TAFBIS
TAF AMD
KBIS 231018Z 2310/2406 10019G27KT P6SM VCSH BKN090
      TEMPO 2310/2313 11025G32KT -SHRA BKN080
     FM231300 12025G34KT P6SM VCSH BKN050 OVC100
     FM231900 17015G22KT P6SM -SHRA OVC030
     FM232300 27014G19KT P6SM VCSH SCT020 OVC035
     FM240200 27010KT P6SM SCT080=

USA.gov is the U.S. government's official web portal to all federal, state and local government web resources and services.